EXS94ZP LEMG-EGBB
Flight info
| Callsign | EXS94ZP |
|---|---|
| Flight time | 2h 58m |
| Altitude | 36000 |
| Route | BLN DCT MORAL DCT BEXID DCT VTB DCT RBO N867 BLV DCT BISKA P87 BELEN DCT DIDIG DCT MOKOR UN873 OLEBA DCT ROGPU DCT DIKRO UM184 HEMEL |
| Aircraft | B738/M-SDE2E3FGHIRWXY/LB1 |
Departure
| Time | 2026-05-06 18:54 |
|---|---|
| Airport | Málaga-Costa del Sol Airport (LEMG) |
Arrival
| Time | 2026-05-06 21:52 |
|---|---|
| Airport | Birmingham Airport (EGBB) |
| Time | Latitude | Longitude | Altitude | Speed | Heading |
|---|---|---|---|---|---|
| 2026-05-06 18:34 | 36.67347 | -4.49133 | 41 ft | 0 kts | 116° |
| 2026-05-06 18:44 | 36.67352 | -4.49146 | 38 ft | 4 kts | 113° |
| 2026-05-06 18:44 | 36.67361 | -4.49177 | 40 ft | 4 kts | 100° |
| 2026-05-06 18:45 | 36.67362 | -4.49209 | 40 ft | 4 kts | 70° |
| 2026-05-06 18:45 | 36.67349 | -4.49230 | 38 ft | 4 kts | 25° |
| 2026-05-06 18:45 | 36.67327 | -4.49240 | 39 ft | 4 kts | 336° |
| 2026-05-06 18:45 | 36.67309 | -4.49223 | 40 ft | 4 kts | 307° |
| 2026-05-06 18:46 | 36.67301 | -4.49210 | 41 ft | 1 kts | 310° |
| 2026-05-06 18:48 | 36.67302 | -4.49212 | 41 ft | 2 kts | 310° |
| 2026-05-06 18:48 | 36.67323 | -4.49243 | 40 ft | 8 kts | 310° |
| 2026-05-06 18:49 | 36.67350 | -4.49307 | 41 ft | 9 kts | 264° |
| 2026-05-06 18:49 | 36.67327 | -4.49373 | 41 ft | 9 kts | 276° |
| 2026-05-06 18:49 | 36.67361 | -4.49432 | 42 ft | 9 kts | 312° |
| 2026-05-06 18:49 | 36.67423 | -4.49518 | 41 ft | 18 kts | 311° |
| 2026-05-06 18:50 | 36.67525 | -4.49662 | 42 ft | 26 kts | 311° |
| 2026-05-06 18:50 | 36.67654 | -4.49842 | 42 ft | 28 kts | 311° |
| 2026-05-06 18:50 | 36.67778 | -4.50017 | 43 ft | 26 kts | 311° |
| 2026-05-06 18:50 | 36.67895 | -4.50180 | 43 ft | 24 kts | 312° |
| 2026-05-06 18:51 | 36.68002 | -4.50331 | 43 ft | 23 kts | 311° |
| 2026-05-06 18:51 | 36.68106 | -4.50477 | 42 ft | 22 kts | 311° |
| 2026-05-06 18:51 | 36.68208 | -4.50619 | 44 ft | 22 kts | 312° |
| 2026-05-06 18:51 | 36.68306 | -4.50758 | 46 ft | 21 kts | 311° |
| 2026-05-06 18:52 | 36.68402 | -4.50891 | 49 ft | 20 kts | 312° |
| 2026-05-06 18:52 | 36.68486 | -4.51008 | 52 ft | 12 kts | 311° |
| 2026-05-06 18:52 | 36.68497 | -4.51101 | 52 ft | 11 kts | 252° |
| 2026-05-06 18:52 | 36.68471 | -4.51194 | 59 ft | 11 kts | 239° |
| 2026-05-06 18:53 | 36.68406 | -4.51192 | 56 ft | 11 kts | 135° |
| 2026-05-06 18:53 | 36.68367 | -4.51138 | 60 ft | 1 kts | 131° |
| 2026-05-06 18:53 | 36.68367 | -4.51137 | 60 ft | 1 kts | 131° |
| 2026-05-06 18:53 | 36.68329 | -4.51085 | 55 ft | 28 kts | 132° |
| 2026-05-06 18:54 | 36.68055 | -4.50700 | 52 ft | 89 kts | 131° |
| 2026-05-06 18:54 | 36.67526 | -4.49960 | 51 ft | 138 kts | 131° |
| 2026-05-06 18:54 | 36.66804 | -4.48961 | 152 ft | 165 kts | 130° |
| 2026-05-06 18:54 | 36.66061 | -4.47942 | 772 ft | 158 kts | 132° |
| 2026-05-06 18:55 | 36.65313 | -4.46905 | 1252 ft | 163 kts | 134° |
| 2026-05-06 18:55 | 36.64542 | -4.45829 | 1707 ft | 173 kts | 133° |
| 2026-05-06 18:55 | 36.63687 | -4.44624 | 1966 ft | 198 kts | 133° |
| 2026-05-06 18:55 | 36.62749 | -4.43302 | 2286 ft | 213 kts | 132° |
| 2026-05-06 18:56 | 36.61757 | -4.41903 | 2754 ft | 217 kts | 132° |
| 2026-05-06 18:56 | 36.60730 | -4.40458 | 3222 ft | 227 kts | 131° |
| 2026-05-06 18:56 | 36.59901 | -4.38784 | 3835 ft | 230 kts | 110° |
| 2026-05-06 18:56 | 36.59528 | -4.36852 | 4527 ft | 230 kts | 102° |
| 2026-05-06 18:57 | 36.59212 | -4.34889 | 5156 ft | 232 kts | 102° |
| 2026-05-06 18:57 | 36.58885 | -4.32908 | 5781 ft | 235 kts | 102° |
| 2026-05-06 18:57 | 36.58553 | -4.30911 | 6403 ft | 237 kts | 101° |
| 2026-05-06 18:57 | 36.58402 | -4.28894 | 6981 ft | 240 kts | 79° |
| 2026-05-06 18:58 | 36.59090 | -4.26966 | 7428 ft | 252 kts | 56° |
| 2026-05-06 18:58 | 36.60172 | -4.25205 | 7966 ft | 259 kts | 52° |
| 2026-05-06 18:58 | 36.61317 | -4.23444 | 8585 ft | 264 kts | 52° |
| 2026-05-06 18:58 | 36.62496 | -4.21658 | 9217 ft | 269 kts | 47° |
| 2026-05-06 18:59 | 36.64072 | -4.20368 | 9691 ft | 282 kts | 20° |
| 2026-05-06 18:59 | 36.65994 | -4.19600 | 10066 ft | 296 kts | 17° |
| 2026-05-06 18:59 | 36.68020 | -4.18807 | 10308 ft | 317 kts | 18° |
| 2026-05-06 18:59 | 36.70184 | -4.17941 | 10521 ft | 336 kts | 17° |
| 2026-05-06 19:00 | 36.72424 | -4.17081 | 10985 ft | 345 kts | 16° |
| 2026-05-06 19:00 | 36.74744 | -4.16215 | 11612 ft | 350 kts | 16° |
| 2026-05-06 19:00 | 36.77095 | -4.15343 | 12284 ft | 355 kts | 16° |
| 2026-05-06 19:00 | 36.79474 | -4.14459 | 12950 ft | 360 kts | 15° |
| 2026-05-06 19:01 | 36.81888 | -4.13560 | 13612 ft | 365 kts | 15° |
| 2026-05-06 19:01 | 36.84338 | -4.12644 | 14247 ft | 369 kts | 15° |
| 2026-05-06 19:01 | 36.86806 | -4.11719 | 14953 ft | 372 kts | 15° |
| 2026-05-06 19:01 | 36.89268 | -4.10795 | 15649 ft | 375 kts | 15° |
| 2026-05-06 19:02 | 36.91790 | -4.09846 | 16324 ft | 379 kts | 15° |
| 2026-05-06 19:02 | 36.94327 | -4.08890 | 16962 ft | 384 kts | 15° |
| 2026-05-06 19:02 | 36.96864 | -4.07935 | 17585 ft | 388 kts | 15° |
| 2026-05-06 19:02 | 36.99460 | -4.06955 | 18230 ft | 392 kts | 15° |
| 2026-05-06 19:03 | 37.02086 | -4.05963 | 18779 ft | 396 kts | 15° |
| 2026-05-06 19:03 | 37.04734 | -4.04963 | 19314 ft | 400 kts | 14° |
| 2026-05-06 19:03 | 37.07415 | -4.03949 | 19867 ft | 404 kts | 14° |
| 2026-05-06 19:03 | 37.10126 | -4.02923 | 20361 ft | 409 kts | 14° |
| 2026-05-06 19:04 | 37.12864 | -4.01886 | 20895 ft | 413 kts | 14° |
| 2026-05-06 19:04 | 37.15632 | -4.00837 | 21405 ft | 417 kts | 14° |
| 2026-05-06 19:04 | 37.18383 | -3.99793 | 21957 ft | 420 kts | 14° |
| 2026-05-06 19:04 | 37.21194 | -3.98726 | 22506 ft | 423 kts | 14° |
| 2026-05-06 19:05 | 37.24023 | -3.97651 | 22981 ft | 428 kts | 13° |
| 2026-05-06 19:05 | 37.26885 | -3.96563 | 23445 ft | 432 kts | 13° |
| 2026-05-06 19:05 | 37.29778 | -3.95462 | 23863 ft | 436 kts | 13° |
| 2026-05-06 19:05 | 37.32692 | -3.94353 | 24284 ft | 439 kts | 13° |
| 2026-05-06 19:06 | 37.35626 | -3.93234 | 24686 ft | 442 kts | 13° |
| 2026-05-06 19:06 | 37.38581 | -3.92107 | 25080 ft | 446 kts | 13° |
| 2026-05-06 19:06 | 37.41564 | -3.90968 | 25475 ft | 449 kts | 13° |
| 2026-05-06 19:06 | 37.44512 | -3.89840 | 25962 ft | 449 kts | 13° |
| 2026-05-06 19:07 | 37.47516 | -3.88690 | 26366 ft | 452 kts | 13° |
| 2026-05-06 19:07 | 37.50537 | -3.87534 | 26701 ft | 456 kts | 13° |
| 2026-05-06 19:07 | 37.53582 | -3.86369 | 27072 ft | 459 kts | 13° |
| 2026-05-06 19:07 | 37.56652 | -3.85192 | 27426 ft | 462 kts | 13° |
| 2026-05-06 19:08 | 37.59742 | -3.84007 | 27773 ft | 466 kts | 13° |
| 2026-05-06 19:08 | 37.62852 | -3.82812 | 28142 ft | 468 kts | 13° |
| 2026-05-06 19:08 | 37.65936 | -3.81626 | 28456 ft | 472 kts | 12° |
| 2026-05-06 19:08 | 37.69096 | -3.80411 | 28716 ft | 476 kts | 12° |
| 2026-05-06 19:09 | 37.72277 | -3.79186 | 29069 ft | 479 kts | 12° |
| 2026-05-06 19:09 | 37.75475 | -3.77950 | 29380 ft | 482 kts | 13° |
| 2026-05-06 19:09 | 37.78687 | -3.76706 | 29703 ft | 484 kts | 12° |
| 2026-05-06 19:09 | 37.81914 | -3.75457 | 30004 ft | 487 kts | 12° |
| 2026-05-06 19:10 | 37.85162 | -3.74199 | 30264 ft | 489 kts | 12° |
| 2026-05-06 19:10 | 37.88421 | -3.72938 | 30564 ft | 490 kts | 12° |
| 2026-05-06 19:10 | 37.91682 | -3.71675 | 30911 ft | 490 kts | 13° |
| 2026-05-06 19:10 | 37.94890 | -3.70430 | 31284 ft | 488 kts | 13° |
| 2026-05-06 19:11 | 37.98137 | -3.69169 | 31605 ft | 488 kts | 13° |
| 2026-05-06 19:11 | 38.01381 | -3.67909 | 31936 ft | 488 kts | 13° |
| 2026-05-06 19:11 | 38.04623 | -3.66650 | 32334 ft | 486 kts | 13° |
| 2026-05-06 19:11 | 38.07849 | -3.65397 | 32708 ft | 484 kts | 13° |
| 2026-05-06 19:12 | 38.11068 | -3.64145 | 33037 ft | 484 kts | 13° |
| 2026-05-06 19:12 | 38.14288 | -3.62921 | 33409 ft | 481 kts | 9° |
| 2026-05-06 19:12 | 38.17543 | -3.62142 | 33884 ft | 470 kts | 0° |
| 2026-05-06 19:12 | 38.20786 | -3.61812 | 34229 ft | 467 kts | 359° |
| 2026-05-06 19:13 | 38.23984 | -3.61538 | 34427 ft | 468 kts | 358° |
| 2026-05-06 19:13 | 38.27239 | -3.61269 | 34623 ft | 469 kts | 359° |
| 2026-05-06 19:13 | 38.30492 | -3.60992 | 34882 ft | 469 kts | 359° |
| 2026-05-06 19:13 | 38.33740 | -3.60700 | 35187 ft | 467 kts | 359° |
| 2026-05-06 19:14 | 38.36978 | -3.60397 | 35477 ft | 466 kts | 359° |
| 2026-05-06 19:14 | 38.40210 | -3.60088 | 35708 ft | 466 kts | 359° |
| 2026-05-06 19:14 | 38.43445 | -3.59774 | 35926 ft | 466 kts | 359° |
| 2026-05-06 19:14 | 38.46677 | -3.59458 | 36176 ft | 465 kts | 359° |
| 2026-05-06 19:15 | 38.49861 | -3.59146 | 36418 ft | 465 kts | 359° |
| 2026-05-06 19:15 | 38.53084 | -3.58830 | 36641 ft | 464 kts | 359° |
| 2026-05-06 19:15 | 38.56305 | -3.58515 | 36849 ft | 464 kts | 359° |
| 2026-05-06 19:15 | 38.59527 | -3.58199 | 37045 ft | 464 kts | 359° |
| 2026-05-06 19:16 | 38.62745 | -3.57884 | 37322 ft | 463 kts | 359° |
| 2026-05-06 19:16 | 38.65944 | -3.57570 | 37600 ft | 461 kts | 359° |
| 2026-05-06 19:16 | 38.69145 | -3.57256 | 37788 ft | 461 kts | 359° |
| 2026-05-06 19:17 | 38.75567 | -3.56627 | 37856 ft | 465 kts | 359° |
| 2026-05-06 19:17 | 38.81960 | -3.55998 | 37866 ft | 462 kts | 359° |
| 2026-05-06 19:18 | 38.88356 | -3.55366 | 37871 ft | 460 kts | 360° |
| 2026-05-06 19:18 | 38.94723 | -3.54737 | 37869 ft | 458 kts | 360° |
| 2026-05-06 19:19 | 39.01058 | -3.54111 | 37869 ft | 456 kts | 360° |
| 2026-05-06 19:19 | 39.07370 | -3.53485 | 37894 ft | 454 kts | 360° |
| 2026-05-06 19:20 | 39.13630 | -3.52865 | 37881 ft | 454 kts | 360° |
| 2026-05-06 19:20 | 39.19930 | -3.52239 | 37879 ft | 454 kts | 360° |
| 2026-05-06 19:21 | 39.26236 | -3.51611 | 37884 ft | 455 kts | 360° |
| 2026-05-06 19:21 | 39.32552 | -3.50981 | 37897 ft | 456 kts | 0° |
| 2026-05-06 19:22 | 39.38848 | -3.50352 | 37888 ft | 457 kts | 0° |
| 2026-05-06 19:22 | 39.45201 | -3.49715 | 37885 ft | 458 kts | 0° |
| 2026-05-06 19:23 | 39.51560 | -3.49077 | 37884 ft | 459 kts | 0° |
| 2026-05-06 19:23 | 39.57940 | -3.48436 | 37892 ft | 460 kts | 0° |
| 2026-05-06 19:24 | 39.64278 | -3.47797 | 37892 ft | 460 kts | 0° |
| 2026-05-06 19:24 | 39.70662 | -3.47152 | 37893 ft | 460 kts | 0° |
| 2026-05-06 19:25 | 39.77040 | -3.46508 | 37914 ft | 460 kts | 0° |
| 2026-05-06 19:25 | 39.83403 | -3.45452 | 37905 ft | 462 kts | 5° |
| 2026-05-06 19:26 | 39.89732 | -3.44058 | 37899 ft | 461 kts | 6° |
| 2026-05-06 19:26 | 39.96011 | -3.42666 | 37892 ft | 460 kts | 5° |
| 2026-05-06 19:27 | 40.02322 | -3.41309 | 37904 ft | 460 kts | 5° |
| 2026-05-06 19:27 | 40.08626 | -3.39974 | 37916 ft | 459 kts | 5° |
| 2026-05-06 19:28 | 40.14932 | -3.38643 | 37908 ft | 459 kts | 5° |
| 2026-05-06 19:28 | 40.21185 | -3.37320 | 37928 ft | 458 kts | 5° |
| 2026-05-06 19:29 | 40.27479 | -3.35984 | 37914 ft | 458 kts | 5° |
| 2026-05-06 19:29 | 40.33776 | -3.34644 | 37915 ft | 459 kts | 5° |
| 2026-05-06 19:30 | 40.40078 | -3.33301 | 37916 ft | 459 kts | 5° |
| 2026-05-06 19:30 | 40.46379 | -3.31956 | 37927 ft | 459 kts | 5° |
| 2026-05-06 19:31 | 40.52650 | -3.30614 | 37909 ft | 460 kts | 5° |
| 2026-05-06 19:31 | 40.62121 | -3.28583 | 37918 ft | 460 kts | 5° |
| 2026-05-06 19:32 | 40.68435 | -3.27226 | 37920 ft | 460 kts | 5° |
| 2026-05-06 19:32 | 40.74753 | -3.25865 | 37928 ft | 460 kts | 5° |
| 2026-05-06 19:33 | 40.81033 | -3.24509 | 37933 ft | 460 kts | 5° |
| 2026-05-06 19:33 | 40.87355 | -3.23143 | 37947 ft | 461 kts | 5° |
| 2026-05-06 19:34 | 40.93681 | -3.21772 | 37944 ft | 461 kts | 5° |
| 2026-05-06 19:34 | 41.00010 | -3.20398 | 37944 ft | 461 kts | 5° |
| 2026-05-06 19:35 | 41.06339 | -3.19022 | 37940 ft | 461 kts | 5° |
| 2026-05-06 19:35 | 41.12626 | -3.17652 | 37959 ft | 461 kts | 6° |
| 2026-05-06 19:36 | 41.18957 | -3.16269 | 37957 ft | 461 kts | 6° |
| 2026-05-06 19:36 | 41.25292 | -3.14884 | 37954 ft | 461 kts | 6° |
| 2026-05-06 19:37 | 41.31625 | -3.13496 | 37959 ft | 461 kts | 6° |
| 2026-05-06 19:37 | 41.36885 | -3.12340 | 37940 ft | 461 kts | 6° |
| 2026-05-06 19:38 | 41.44239 | -3.10722 | 37958 ft | 461 kts | 6° |
| 2026-05-06 19:38 | 41.50559 | -3.09329 | 37963 ft | 460 kts | 6° |
| 2026-05-06 19:39 | 41.56881 | -3.07932 | 37959 ft | 460 kts | 6° |
| 2026-05-06 19:39 | 41.63154 | -3.06544 | 37947 ft | 460 kts | 6° |
| 2026-05-06 19:40 | 41.69467 | -3.05143 | 37957 ft | 460 kts | 6° |
| 2026-05-06 19:40 | 41.75772 | -3.03742 | 37978 ft | 459 kts | 6° |
| 2026-05-06 19:41 | 41.82080 | -3.02337 | 37982 ft | 459 kts | 6° |
| 2026-05-06 19:41 | 41.88389 | -3.00930 | 37975 ft | 460 kts | 6° |
| 2026-05-06 19:42 | 41.94654 | -2.99529 | 37984 ft | 459 kts | 6° |
| 2026-05-06 19:42 | 42.00954 | -2.98117 | 38002 ft | 459 kts | 6° |
| 2026-05-06 19:43 | 42.07261 | -2.96702 | 37990 ft | 459 kts | 6° |
| 2026-05-06 19:43 | 42.13565 | -2.95283 | 38003 ft | 459 kts | 6° |
| 2026-05-06 19:44 | 42.19867 | -2.93863 | 38020 ft | 459 kts | 6° |
| 2026-05-06 19:44 | 42.26123 | -2.92453 | 38011 ft | 459 kts | 6° |
| 2026-05-06 19:45 | 42.32413 | -2.91029 | 38014 ft | 458 kts | 6° |
| 2026-05-06 19:45 | 42.38689 | -2.89603 | 38048 ft | 457 kts | 6° |
| 2026-05-06 19:46 | 42.44964 | -2.88223 | 38021 ft | 456 kts | 2° |
| 2026-05-06 19:46 | 42.51204 | -2.88231 | 38029 ft | 451 kts | 354° |
| 2026-05-06 19:47 | 42.57466 | -2.88649 | 38029 ft | 451 kts | 354° |
| 2026-05-06 19:47 | 42.63736 | -2.89033 | 38035 ft | 451 kts | 354° |
| 2026-05-06 19:48 | 42.70015 | -2.89370 | 38034 ft | 451 kts | 354° |
| 2026-05-06 19:48 | 42.76254 | -2.89690 | 38041 ft | 452 kts | 354° |
| 2026-05-06 19:49 | 42.82541 | -2.90011 | 38035 ft | 453 kts | 354° |
| 2026-05-06 19:49 | 42.88828 | -2.90277 | 38036 ft | 453 kts | 359° |
| 2026-05-06 19:50 | 42.95103 | -2.89089 | 38036 ft | 457 kts | 7° |
| 2026-05-06 19:50 | 43.01346 | -2.87468 | 38044 ft | 457 kts | 8° |
| 2026-05-06 19:51 | 43.07565 | -2.85886 | 38022 ft | 458 kts | 7° |
| 2026-05-06 19:51 | 43.13833 | -2.84358 | 38027 ft | 458 kts | 7° |
| 2026-05-06 19:52 | 43.20108 | -2.82855 | 38039 ft | 458 kts | 7° |
| 2026-05-06 19:52 | 43.26338 | -2.81366 | 38037 ft | 457 kts | 7° |
| 2026-05-06 19:53 | 43.32605 | -2.79864 | 38020 ft | 457 kts | 7° |
| 2026-05-06 19:53 | 43.38865 | -2.78359 | 38032 ft | 457 kts | 7° |
| 2026-05-06 19:54 | 43.45124 | -2.76850 | 38026 ft | 456 kts | 7° |
| 2026-05-06 19:54 | 43.51367 | -2.75342 | 38018 ft | 455 kts | 7° |
| 2026-05-06 19:55 | 43.57549 | -2.73845 | 38022 ft | 453 kts | 7° |
| 2026-05-06 19:55 | 43.63754 | -2.72340 | 38030 ft | 452 kts | 7° |
| 2026-05-06 19:56 | 43.69948 | -2.70834 | 38020 ft | 451 kts | 7° |
| 2026-05-06 19:56 | 43.76131 | -2.69328 | 38021 ft | 450 kts | 7° |
| 2026-05-06 19:57 | 43.82256 | -2.67832 | 38030 ft | 450 kts | 7° |
| 2026-05-06 19:57 | 43.88416 | -2.66325 | 38015 ft | 449 kts | 7° |
| 2026-05-06 19:58 | 43.94576 | -2.64816 | 38020 ft | 449 kts | 7° |
| 2026-05-06 19:58 | 44.00732 | -2.63304 | 38038 ft | 449 kts | 7° |
| 2026-05-06 19:59 | 44.06895 | -2.61786 | 38028 ft | 450 kts | 7° |
| 2026-05-06 19:59 | 44.13020 | -2.60276 | 38016 ft | 450 kts | 7° |
| 2026-05-06 20:00 | 44.19192 | -2.58750 | 38018 ft | 450 kts | 7° |
| 2026-05-06 20:00 | 44.25364 | -2.57221 | 38025 ft | 451 kts | 8° |
| 2026-05-06 20:01 | 44.31541 | -2.55687 | 38025 ft | 451 kts | 8° |
| 2026-05-06 20:01 | 44.37673 | -2.54161 | 38024 ft | 451 kts | 8° |
| 2026-05-06 20:02 | 44.43847 | -2.52622 | 38024 ft | 451 kts | 8° |
| 2026-05-06 20:02 | 44.50018 | -2.51080 | 38021 ft | 450 kts | 8° |
| 2026-05-06 20:03 | 44.56181 | -2.49536 | 38017 ft | 450 kts | 8° |
| 2026-05-06 20:03 | 44.62293 | -2.48002 | 38027 ft | 449 kts | 8° |
| 2026-05-06 20:04 | 44.68441 | -2.46456 | 38017 ft | 448 kts | 8° |
| 2026-05-06 20:04 | 44.74579 | -2.44909 | 38018 ft | 448 kts | 8° |
| 2026-05-06 20:05 | 44.80705 | -2.43362 | 38012 ft | 447 kts | 8° |
| 2026-05-06 20:05 | 44.86780 | -2.41824 | 38013 ft | 446 kts | 8° |
| 2026-05-06 20:06 | 44.92886 | -2.40275 | 38013 ft | 446 kts | 8° |
| 2026-05-06 20:06 | 44.98990 | -2.38724 | 38019 ft | 445 kts | 8° |
| 2026-05-06 20:07 | 45.05090 | -2.37170 | 38012 ft | 445 kts | 8° |
| 2026-05-06 20:07 | 45.11185 | -2.35614 | 38011 ft | 445 kts | 8° |
| 2026-05-06 20:08 | 45.17283 | -2.34053 | 38019 ft | 445 kts | 8° |
| 2026-05-06 20:08 | 45.23341 | -2.32500 | 38007 ft | 446 kts | 8° |
| 2026-05-06 20:09 | 45.29441 | -2.30932 | 38012 ft | 445 kts | 8° |
| 2026-05-06 20:09 | 45.35540 | -2.29361 | 38007 ft | 446 kts | 8° |
| 2026-05-06 20:10 | 45.41643 | -2.27786 | 38009 ft | 446 kts | 8° |
| 2026-05-06 20:10 | 45.47703 | -2.26219 | 38008 ft | 446 kts | 8° |
| 2026-05-06 20:11 | 45.53804 | -2.24637 | 38008 ft | 445 kts | 8° |
| 2026-05-06 20:11 | 45.59903 | -2.23052 | 38012 ft | 445 kts | 8° |
| 2026-05-06 20:12 | 45.64968 | -2.21734 | 38007 ft | 445 kts | 8° |
| 2026-05-06 20:12 | 45.71066 | -2.20143 | 38005 ft | 445 kts | 8° |
| 2026-05-06 20:13 | 45.78140 | -2.18293 | 38011 ft | 445 kts | 8° |
| 2026-05-06 20:13 | 45.83198 | -2.16967 | 38003 ft | 444 kts | 8° |
| 2026-05-06 20:14 | 45.89279 | -2.15370 | 38005 ft | 444 kts | 8° |
| 2026-05-06 20:14 | 45.95354 | -2.13771 | 38012 ft | 444 kts | 8° |
| 2026-05-06 20:15 | 46.01428 | -2.12169 | 38002 ft | 444 kts | 8° |
| 2026-05-06 20:15 | 46.07498 | -2.10564 | 38003 ft | 443 kts | 8° |
| 2026-05-06 20:16 | 46.13520 | -2.08969 | 38002 ft | 443 kts | 8° |
| 2026-05-06 20:16 | 46.19585 | -2.07358 | 38002 ft | 443 kts | 8° |
| 2026-05-06 20:17 | 46.25650 | -2.05744 | 37995 ft | 443 kts | 8° |
| 2026-05-06 20:17 | 46.31712 | -2.04127 | 37994 ft | 443 kts | 8° |
| 2026-05-06 20:18 | 46.37731 | -2.02518 | 38000 ft | 443 kts | 9° |
| 2026-05-06 20:18 | 46.43795 | -2.00893 | 37993 ft | 443 kts | 9° |
| 2026-05-06 20:19 | 46.49857 | -1.99265 | 37992 ft | 443 kts | 9° |
| 2026-05-06 20:19 | 46.55923 | -1.97632 | 38000 ft | 443 kts | 9° |
| 2026-05-06 20:20 | 46.61949 | -1.96007 | 37988 ft | 444 kts | 9° |
| 2026-05-06 20:20 | 46.68019 | -1.94365 | 37987 ft | 444 kts | 9° |
| 2026-05-06 20:21 | 46.74091 | -1.92720 | 37981 ft | 444 kts | 9° |
| 2026-05-06 20:21 | 46.80161 | -1.91071 | 37981 ft | 444 kts | 9° |
| 2026-05-06 20:22 | 46.86236 | -1.89417 | 37983 ft | 444 kts | 9° |
| 2026-05-06 20:22 | 46.92266 | -1.87771 | 37984 ft | 444 kts | 9° |
| 2026-05-06 20:23 | 46.98341 | -1.86110 | 37984 ft | 444 kts | 9° |
| 2026-05-06 20:23 | 47.04417 | -1.84444 | 37981 ft | 444 kts | 9° |
| 2026-05-06 20:24 | 47.10489 | -1.82775 | 37978 ft | 444 kts | 9° |
| 2026-05-06 20:24 | 47.16523 | -1.81114 | 37991 ft | 444 kts | 9° |
| 2026-05-06 20:25 | 47.22597 | -1.79437 | 37989 ft | 444 kts | 9° |
| 2026-05-06 20:25 | 47.28670 | -1.77757 | 37991 ft | 444 kts | 9° |
| 2026-05-06 20:26 | 47.34741 | -1.76073 | 37985 ft | 444 kts | 9° |
| 2026-05-06 20:26 | 47.40814 | -1.74384 | 37983 ft | 444 kts | 9° |
| 2026-05-06 20:27 | 47.46842 | -1.72704 | 37987 ft | 444 kts | 9° |
| 2026-05-06 20:27 | 47.52911 | -1.71009 | 37974 ft | 444 kts | 9° |
| 2026-05-06 20:28 | 47.58981 | -1.69310 | 37994 ft | 444 kts | 9° |
| 2026-05-06 20:28 | 47.65051 | -1.67607 | 37983 ft | 444 kts | 9° |
| 2026-05-06 20:29 | 47.67664 | -1.66872 | 37980 ft | 444 kts | 9° |
| 2026-05-06 21:04 | 47.69891 | -1.66247 | 38095 ft | 438 kts | 9° |
| 2026-05-06 21:04 | 47.72876 | -1.65409 | 38049 ft | 438 kts | 9° |
| 2026-05-06 21:05 | 47.78879 | -1.63713 | 37998 ft | 442 kts | 9° |
| 2026-05-06 21:05 | 47.84924 | -1.62003 | 38005 ft | 448 kts | 9° |
| 2026-05-06 21:06 | 47.91064 | -1.60262 | 38022 ft | 451 kts | 9° |
| 2026-05-06 21:06 | 47.97236 | -1.58508 | 38011 ft | 452 kts | 9° |
| 2026-05-06 21:07 | 48.03427 | -1.56744 | 38011 ft | 453 kts | 9° |
| 2026-05-06 21:07 | 48.09563 | -1.54991 | 38018 ft | 451 kts | 9° |
| 2026-05-06 21:08 | 48.15718 | -1.53228 | 38009 ft | 449 kts | 9° |
| 2026-05-06 21:08 | 48.21841 | -1.51471 | 38017 ft | 447 kts | 9° |
| 2026-05-06 21:09 | 48.27936 | -1.49718 | 38002 ft | 445 kts | 9° |
| 2026-05-06 21:09 | 48.33961 | -1.47981 | 38007 ft | 443 kts | 9° |
| 2026-05-06 21:10 | 48.40000 | -1.46235 | 38007 ft | 441 kts | 9° |
| 2026-05-06 21:10 | 48.46024 | -1.44490 | 38004 ft | 440 kts | 9° |
| 2026-05-06 21:11 | 48.52027 | -1.42746 | 38005 ft | 440 kts | 9° |
| 2026-05-06 21:11 | 48.57989 | -1.41011 | 38011 ft | 441 kts | 9° |
| 2026-05-06 21:12 | 48.64014 | -1.39253 | 38014 ft | 442 kts | 9° |
| 2026-05-06 21:12 | 48.70060 | -1.37484 | 38012 ft | 443 kts | 9° |
| 2026-05-06 21:13 | 48.76123 | -1.35706 | 38019 ft | 445 kts | 9° |
| 2026-05-06 21:13 | 48.82206 | -1.33917 | 38013 ft | 446 kts | 9° |
| 2026-05-06 21:14 | 48.88269 | -1.32130 | 38020 ft | 447 kts | 9° |
| 2026-05-06 21:14 | 48.94386 | -1.30323 | 38018 ft | 448 kts | 9° |
| 2026-05-06 21:15 | 49.00514 | -1.28507 | 38014 ft | 449 kts | 9° |
| 2026-05-06 21:15 | 49.06648 | -1.26685 | 38016 ft | 449 kts | 9° |
| 2026-05-06 21:16 | 49.12735 | -1.24873 | 38016 ft | 449 kts | 9° |
| 2026-05-06 21:16 | 49.18858 | -1.23046 | 38018 ft | 448 kts | 9° |
| 2026-05-06 21:17 | 49.24968 | -1.21217 | 38019 ft | 447 kts | 9° |
| 2026-05-06 21:17 | 49.31061 | -1.19390 | 38021 ft | 446 kts | 9° |
| 2026-05-06 21:18 | 49.37148 | -1.17559 | 38012 ft | 445 kts | 9° |
| 2026-05-06 21:18 | 49.43205 | -1.15974 | 38015 ft | 443 kts | 5° |
| 2026-05-06 21:19 | 49.49335 | -1.14968 | 38017 ft | 443 kts | 4° |
| 2026-05-06 21:19 | 49.55459 | -1.14040 | 38022 ft | 442 kts | 4° |
| 2026-05-06 21:20 | 49.61585 | -1.13105 | 38013 ft | 442 kts | 4° |
| 2026-05-06 21:20 | 49.67667 | -1.12159 | 38018 ft | 442 kts | 4° |
| 2026-05-06 21:21 | 49.73792 | -1.11199 | 38016 ft | 443 kts | 4° |
| 2026-05-06 21:21 | 49.79925 | -1.10233 | 38016 ft | 443 kts | 4° |
| 2026-05-06 21:22 | 49.86062 | -1.09265 | 38015 ft | 444 kts | 4° |
| 2026-05-06 21:22 | 49.92171 | -1.08298 | 38008 ft | 444 kts | 4° |
| 2026-05-06 21:23 | 49.98325 | -1.07323 | 38015 ft | 445 kts | 4° |
| 2026-05-06 21:23 | 50.04490 | -1.06343 | 38004 ft | 446 kts | 4° |
| 2026-05-06 21:24 | 50.10661 | -1.05359 | 38003 ft | 446 kts | 4° |
| 2026-05-06 21:24 | 50.16828 | -1.04269 | 38002 ft | 447 kts | 8° |
| 2026-05-06 21:25 | 50.22933 | -1.02428 | 38010 ft | 447 kts | 10° |
| 2026-05-06 21:25 | 50.28985 | -1.00442 | 38001 ft | 447 kts | 11° |
| 2026-05-06 21:26 | 50.35078 | -0.98412 | 38002 ft | 447 kts | 11° |
| 2026-05-06 21:26 | 50.41169 | -0.96435 | 37996 ft | 446 kts | 7° |
| 2026-05-06 21:27 | 50.47345 | -0.95837 | 38001 ft | 445 kts | 0° |
| 2026-05-06 21:27 | 50.53529 | -0.95557 | 38002 ft | 444 kts | 0° |
| 2026-05-06 21:28 | 50.59664 | -0.95219 | 38000 ft | 444 kts | 1° |
| 2026-05-06 21:28 | 50.65840 | -0.94831 | 38015 ft | 444 kts | 1° |
| 2026-05-06 21:29 | 50.72013 | -0.94436 | 38002 ft | 444 kts | 1° |
| 2026-05-06 21:29 | 50.78179 | -0.94043 | 38009 ft | 443 kts | 1° |
| 2026-05-06 21:30 | 50.84190 | -0.92193 | 37979 ft | 446 kts | 19° |
| 2026-05-06 21:30 | 50.87051 | -0.90191 | 37693 ft | 452 kts | 24° |
| 2026-05-06 21:30 | 50.89880 | -0.88022 | 37456 ft | 451 kts | 24° |
| 2026-05-06 21:30 | 50.92691 | -0.85845 | 37176 ft | 448 kts | 25° |
| 2026-05-06 21:31 | 50.95482 | -0.83670 | 36914 ft | 447 kts | 25° |
| 2026-05-06 21:31 | 50.98268 | -0.81495 | 36628 ft | 446 kts | 25° |
| 2026-05-06 21:31 | 51.01048 | -0.79323 | 36095 ft | 444 kts | 24° |
| 2026-05-06 21:31 | 51.03781 | -0.77187 | 35553 ft | 444 kts | 24° |
| 2026-05-06 21:32 | 51.06559 | -0.75015 | 34970 ft | 445 kts | 24° |
| 2026-05-06 21:32 | 51.12137 | -0.70650 | 33694 ft | 449 kts | 24° |
| 2026-05-06 21:32 | 51.14933 | -0.68457 | 33176 ft | 446 kts | 24° |
| 2026-05-06 21:33 | 51.17705 | -0.66278 | 32701 ft | 442 kts | 24° |
| 2026-05-06 21:33 | 51.20452 | -0.64117 | 32263 ft | 438 kts | 24° |
| 2026-05-06 21:33 | 51.23175 | -0.61972 | 31818 ft | 435 kts | 24° |
| 2026-05-06 21:33 | 51.25874 | -0.59843 | 31389 ft | 431 kts | 24° |
| 2026-05-06 21:34 | 51.28549 | -0.57731 | 30973 ft | 428 kts | 24° |
| 2026-05-06 21:34 | 51.31171 | -0.55658 | 30547 ft | 425 kts | 24° |
| 2026-05-06 21:34 | 51.33811 | -0.53568 | 30160 ft | 422 kts | 24° |
| 2026-05-06 21:34 | 51.36430 | -0.51492 | 29676 ft | 419 kts | 24° |
| 2026-05-06 21:35 | 51.39029 | -0.49434 | 29215 ft | 415 kts | 23° |
| 2026-05-06 21:35 | 51.41701 | -0.47788 | 28628 ft | 411 kts | 14° |
| 2026-05-06 21:35 | 51.44487 | -0.46827 | 28042 ft | 408 kts | 4° |
| 2026-05-06 21:35 | 51.47302 | -0.46390 | 27502 ft | 405 kts | 3° |
| 2026-05-06 21:36 | 51.50124 | -0.46003 | 26871 ft | 407 kts | 2° |
| 2026-05-06 21:36 | 51.52935 | -0.45629 | 26375 ft | 404 kts | 2° |
| 2026-05-06 21:36 | 51.55687 | -0.45266 | 25925 ft | 401 kts | 2° |
| 2026-05-06 21:36 | 51.58454 | -0.44898 | 25492 ft | 397 kts | 2° |
| 2026-05-06 21:37 | 51.61198 | -0.44531 | 25091 ft | 394 kts | 3° |
| 2026-05-06 21:37 | 51.63916 | -0.44295 | 24749 ft | 387 kts | 355° |
| 2026-05-06 21:37 | 51.66536 | -0.44904 | 24509 ft | 377 kts | 343° |
| 2026-05-06 21:37 | 51.68978 | -0.46293 | 24289 ft | 369 kts | 335° |
| 2026-05-06 21:38 | 51.71319 | -0.47916 | 24058 ft | 366 kts | 335° |
| 2026-05-06 21:38 | 51.73680 | -0.49545 | 23832 ft | 371 kts | 335° |
| 2026-05-06 21:38 | 51.76072 | -0.51195 | 23575 ft | 376 kts | 335° |
| 2026-05-06 21:38 | 51.78472 | -0.52853 | 23291 ft | 374 kts | 335° |
| 2026-05-06 21:39 | 51.80819 | -0.54476 | 23023 ft | 371 kts | 335° |
| 2026-05-06 21:39 | 51.83182 | -0.56113 | 22741 ft | 368 kts | 335° |
| 2026-05-06 21:39 | 51.85528 | -0.57740 | 22463 ft | 366 kts | 335° |
| 2026-05-06 21:39 | 51.87862 | -0.59362 | 22197 ft | 364 kts | 335° |
| 2026-05-06 21:40 | 51.90182 | -0.60976 | 21935 ft | 363 kts | 335° |
| 2026-05-06 21:40 | 51.92496 | -0.62588 | 21661 ft | 361 kts | 335° |
| 2026-05-06 21:40 | 51.94800 | -0.64195 | 21395 ft | 360 kts | 335° |
| 2026-05-06 21:40 | 51.96975 | -0.66145 | 21115 ft | 357 kts | 321° |
| 2026-05-06 21:41 | 51.98845 | -0.68703 | 20873 ft | 356 kts | 317° |
| 2026-05-06 21:41 | 52.00678 | -0.71432 | 20402 ft | 360 kts | 316° |
| 2026-05-06 21:41 | 52.02511 | -0.74218 | 19895 ft | 362 kts | 316° |
| 2026-05-06 21:41 | 52.04342 | -0.77018 | 19407 ft | 361 kts | 316° |
| 2026-05-06 21:42 | 52.06167 | -0.79821 | 18928 ft | 360 kts | 316° |
| 2026-05-06 21:42 | 52.07984 | -0.82619 | 18447 ft | 360 kts | 316° |
| 2026-05-06 21:42 | 52.09795 | -0.85415 | 17925 ft | 359 kts | 316° |
| 2026-05-06 21:42 | 52.11600 | -0.88208 | 17384 ft | 358 kts | 316° |
| 2026-05-06 21:43 | 52.13396 | -0.90996 | 16856 ft | 356 kts | 316° |
| 2026-05-06 21:43 | 52.15161 | -0.93743 | 16340 ft | 355 kts | 316° |
| 2026-05-06 21:43 | 52.16944 | -0.96526 | 15824 ft | 354 kts | 315° |
| 2026-05-06 21:43 | 52.18712 | -0.99296 | 15333 ft | 352 kts | 316° |
| 2026-05-06 21:44 | 52.20337 | -1.02257 | 14817 ft | 351 kts | 302° |
| 2026-05-06 21:44 | 52.21274 | -1.05909 | 14344 ft | 350 kts | 285° |
| 2026-05-06 21:44 | 52.21791 | -1.09778 | 13872 ft | 348 kts | 282° |
| 2026-05-06 21:44 | 52.22229 | -1.13657 | 13338 ft | 347 kts | 281° |
| 2026-05-06 21:45 | 52.22647 | -1.17520 | 12802 ft | 344 kts | 281° |
| 2026-05-06 21:45 | 52.23028 | -1.21308 | 12273 ft | 333 kts | 276° |
| 2026-05-06 21:45 | 52.22921 | -1.25032 | 11751 ft | 325 kts | 263° |
| 2026-05-06 21:45 | 52.22567 | -1.28583 | 11248 ft | 318 kts | 261° |
| 2026-05-06 21:46 | 52.22178 | -1.32090 | 10747 ft | 311 kts | 261° |
| 2026-05-06 21:46 | 52.21791 | -1.35508 | 10486 ft | 297 kts | 261° |
| 2026-05-06 21:46 | 52.21468 | -1.38714 | 10417 ft | 278 kts | 269° |
| 2026-05-06 21:46 | 52.21653 | -1.41733 | 10349 ft | 259 kts | 280° |
| 2026-05-06 21:47 | 52.21945 | -1.44543 | 10262 ft | 244 kts | 280° |
| 2026-05-06 21:47 | 52.22232 | -1.47289 | 9596 ft | 253 kts | 282° |
| 2026-05-06 21:47 | 52.22944 | -1.49931 | 8806 ft | 262 kts | 313° |
| 2026-05-06 21:47 | 52.24436 | -1.51611 | 8361 ft | 258 kts | 333° |
| 2026-05-06 21:48 | 52.25966 | -1.53052 | 7641 ft | 265 kts | 327° |
| 2026-05-06 21:48 | 52.27509 | -1.54802 | 6849 ft | 275 kts | 325° |
| 2026-05-06 21:48 | 52.29060 | -1.56574 | 6231 ft | 263 kts | 326° |
| 2026-05-06 21:48 | 52.30551 | -1.58251 | 5401 ft | 258 kts | 326° |
| 2026-05-06 21:49 | 52.32023 | -1.59892 | 4623 ft | 254 kts | 327° |
| 2026-05-06 21:49 | 52.33453 | -1.61490 | 3849 ft | 245 kts | 327° |
| 2026-05-06 21:49 | 52.34847 | -1.63046 | 3033 ft | 240 kts | 327° |
| 2026-05-06 21:49 | 52.36212 | -1.64572 | 2441 ft | 229 kts | 328° |
| 2026-05-06 21:50 | 52.37465 | -1.65971 | 2133 ft | 215 kts | 328° |
| 2026-05-06 21:50 | 52.38661 | -1.67306 | 1830 ft | 202 kts | 329° |
| 2026-05-06 21:50 | 52.39790 | -1.68564 | 1566 ft | 190 kts | 328° |
| 2026-05-06 21:50 | 52.40831 | -1.69726 | 1334 ft | 172 kts | 329° |
| 2026-05-06 21:51 | 52.41784 | -1.70789 | 1049 ft | 159 kts | 327° |
| 2026-05-06 21:51 | 52.42655 | -1.71762 | 855 ft | 145 kts | 328° |
| 2026-05-06 21:51 | 52.43486 | -1.72684 | 660 ft | 145 kts | 327° |
| 2026-05-06 21:51 | 52.44313 | -1.73608 | 448 ft | 142 kts | 327° |
| 2026-05-06 21:52 | 52.45100 | -1.74478 | 326 ft | 126 kts | 325° |
| 2026-05-06 21:52 | 52.45647 | -1.75093 | 321 ft | 69 kts | 325° |
| 2026-05-06 21:52 | 52.46010 | -1.75496 | 311 ft | 51 kts | 325° |
| 2026-05-06 21:52 | 52.46144 | -1.75613 | 309 ft | 13 kts | 12° |
| 2026-05-06 21:53 | 52.46197 | -1.75510 | 307 ft | 11 kts | 56° |
| 2026-05-06 21:53 | 52.46219 | -1.75433 | 304 ft | 10 kts | 89° |
| 2026-05-06 21:53 | 52.46176 | -1.75353 | 304 ft | 10 kts | 146° |
| 2026-05-06 21:53 | 52.46121 | -1.75290 | 303 ft | 11 kts | 146° |
| 2026-05-06 21:54 | 52.46031 | -1.75192 | 307 ft | 20 kts | 145° |
| 2026-05-06 21:54 | 52.45899 | -1.75045 | 306 ft | 24 kts | 146° |
| 2026-05-06 21:54 | 52.45766 | -1.74896 | 309 ft | 23 kts | 146° |
| 2026-05-06 21:54 | 52.45636 | -1.74752 | 315 ft | 22 kts | 146° |
| 2026-05-06 21:55 | 52.45510 | -1.74612 | 322 ft | 21 kts | 145° |
| 2026-05-06 21:55 | 52.45435 | -1.74441 | 321 ft | 16 kts | 116° |
| 2026-05-06 21:55 | 52.45384 | -1.74279 | 322 ft | 16 kts | 116° |
| 2026-05-06 21:55 | 52.45337 | -1.74122 | 322 ft | 15 kts | 117° |
| 2026-05-06 21:56 | 52.45284 | -1.73979 | 322 ft | 14 kts | 140° |
| 2026-05-06 21:56 | 52.45203 | -1.73888 | 322 ft | 14 kts | 146° |
| 2026-05-06 21:56 | 52.45125 | -1.73802 | 322 ft | 13 kts | 146° |
| 2026-05-06 21:56 | 52.45043 | -1.73748 | 321 ft | 13 kts | 165° |
| 2026-05-06 21:57 | 52.44969 | -1.73672 | 322 ft | 12 kts | 146° |
| 2026-05-06 21:57 | 52.44903 | -1.73585 | 322 ft | 12 kts | 120° |
| 2026-05-06 21:57 | 52.44921 | -1.73460 | 322 ft | 12 kts | 56° |
| 2026-05-06 21:57 | 52.44956 | -1.73374 | 322 ft | 8 kts | 55° |
| 2026-05-06 21:58 | 52.44956 | -1.73321 | 323 ft | 5 kts | 134° |
| 2026-05-06 21:58 | 52.44934 | -1.73294 | 323 ft | 2 kts | 145° |
| 2026-05-06 21:58 | 52.44929 | -1.73290 | 323 ft | 0 kts | 145° |